Time;durP1;ratioP1;P1;durP2;ratioP2;P2;SDS_P1;SDS_P2;PMS_P1;PMS_P2;Temp;Humidity;BMP_temperature;BMP_pressure;BME280_temperature;BME280_humidity;BME280_pressure;Samples;Min_cycle;Max_cycle;Signal;HPM_P1;HPM_P2
2023/04/15 00:02:34;;;;;;;;;;;;;;;8.66;68.34;98863.56;4388593;32;32493;-91
2023/04/15 00:05:17;;;;;;;;;;;;;;;8.77;68.42;98865.66;4395158;32;33598;-89
2023/04/15 00:07:47;;;;;;;;;;;;;;;8.64;69.33;98869.81;4394683;32;33144;-88
2023/04/15 00:10:15;;;;;;;;;;;;;;;8.81;68.00;98859.28;4384234;32;33074;-88
2023/04/15 00:12:42;;;;;;;;;;;;;;;9.09;66.88;98861.34;4396440;32;32582;-88
2023/04/15 00:15:11;;;;;;;;;;;;;;;8.75;68.24;98870.16;4383886;32;33579;-88
2023/04/15 00:17:41;;;;;;;;;;;;;;;8.61;68.81;98867.38;4396398;32;33268;-89
2023/04/15 00:20:10;;;;;;;;;;;;;;;8.95;67.14;98869.97;4396347;32;33043;-89
2023/04/15 00:22:59;;;;;;;;;;;;;;;8.43;69.02;98869.97;4396673;32;31863;-89
2023/04/15 00:25:30;;;;;;;;;;;;;;;8.38;69.53;98881.66;4396442;32;33559;-89
2023/04/15 00:27:59;;;;;;;;;;;;;;;8.94;67.78;98870.91;4383979;32;33036;-89
2023/04/15 00:30:27;;;;;;;;;;;;;;;8.49;69.78;98878.50;4396073;32;33612;-89
2023/04/15 00:33:18;;;;;;;;;;;;;;;8.79;68.61;98871.69;4383856;32;32301;-90
2023/04/15 00:36:00;;;;;;;;;;;;;;;8.66;68.86;98860.94;4397148;32;34782;-89
2023/04/15 00:39:04;;;;;;;;;;;;;;;8.83;68.68;98849.56;4399565;32;34084;-89
2023/04/15 00:41:44;;;;;;;;;;;;;;;8.91;67.84;98854.41;4394785;32;32856;-92
2023/04/15 00:48:41;;;;;;;;;;;;;;;9.14;67.66;98845.31;4426152;32;34817;-90
2023/04/15 00:51:24;;;;;;;;;;;;;;;9.09;67.93;98853.44;4381614;32;34009;-89
2023/04/15 00:54:17;;;;;;;;;;;;;;;8.98;68.36;98853.19;4379383;32;32749;-91
2023/04/15 00:56:56;;;;;;;;;;;;;;;9.08;68.18;98864.06;4393520;32;32154;-90
2023/04/15 00:59:39;;;;;;;;;;;;;;;9.09;68.26;98860.50;4425131;32;33131;-89
2023/04/15 01:02:43;;;;;;;;;;;;;;;9.19;68.16;98845.91;4384688;32;33598;-89
2023/04/15 01:05:35;;;;;;;;;;;;;;;9.52;66.57;98852.94;4393848;32;34147;-87
2023/04/15 01:08:03;;;;;;;;;;;;;;;9.43;67.04;98857.75;4393069;32;33219;-89
2023/04/15 01:10:30;;;;;;;;;;;;;;;9.34;67.51;98850.34;4379878;32;33027;-90
2023/04/15 01:12:58;;;;;;;;;;;;;;;9.45;67.10;98847.16;4395094;32;33283;-89
2023/04/15 01:15:26;;;;;;;;;;;;;;;9.48;66.93;98850.47;4388722;32;33214;-88
2023/04/15 01:17:54;;;;;;;;;;;;;;;9.64;66.43;98850.50;4397925;32;32249;-89
2023/04/15 01:20:22;;;;;;;;;;;;;;;9.80;65.54;98837.31;4365431;32;32843;-91
2023/04/15 01:22:51;;;;;;;;;;;;;;;9.71;65.48;98851.84;4395200;32;33267;-90
2023/04/15 01:25:47;;;;;;;;;;;;;;;9.70;66.28;98849.31;4381019;32;33391;-90
2023/04/15 01:28:23;;;;;;;;;;;;;;;9.58;67.01;98853.44;4394676;32;32693;-90
2023/04/15 01:31:04;;;;;;;;;;;;;;;9.39;66.86;98853.59;4395541;32;32675;-90
2023/04/15 01:33:51;;;;;;;;;;;;;;;9.45;67.20;98853.28;4395279;32;33007;-90
2023/04/15 01:36:39;;;;;;;;;;;;;;;9.70;66.37;98841.38;4408179;32;35740;-90
2023/04/15 01:39:07;;;;;;;;;;;;;;;9.88;65.65;98845.66;4395142;32;34066;-90
2023/04/15 01:42:02;;;;;;;;;;;;;;;9.90;65.75;98843.75;4395608;32;34560;-90
2023/04/15 01:44:52;;;;;;;;;;;;;;;10.00;65.32;98844.94;4389593;32;33143;-90
2023/04/15 01:47:25;;;;;;;;;;;;;;;10.08;65.01;98848.94;4405034;32;34732;-90
2023/04/15 01:49:55;;;;;;;;;;;;;;;9.82;65.52;98859.16;4398641;32;33396;-90
2023/04/15 01:52:26;;;;;;;;;;;;;;;9.96;65.77;98853.09;4396291;32;34664;-90
2023/04/15 01:54:56;;;;;;;;;;;;;;;9.95;65.62;98854.91;4396231;32;34693;-90
2023/04/15 01:57:26;;;;;;;;;;;;;;;10.21;64.78;98853.44;4408514;32;34728;-90
2023/04/15 02:00:16;;;;;;;;;;;;;;;10.38;64.13;98852.47;4393602;32;33906;-91
2023/04/15 02:02:45;;;;;;;;;;;;;;;9.77;66.26;98855.91;4368956;32;34041;-91
2023/04/15 02:05:24;;;;;;;;;;;;;;;10.09;65.29;98861.19;4369730;32;34357;-90
2023/04/15 02:08:12;;;;;;;;;;;;;;;10.06;65.42;98861.34;4422104;32;34580;-90
2023/04/15 02:11:02;;;;;;;;;;;;;;;10.17;65.34;98859.81;4395447;32;33794;-90
2023/04/15 02:13:35;;;;;;;;;;;;;;;10.29;64.82;98860.06;4405364;32;34653;-91
2023/04/15 02:16:05;;;;;;;;;;;;;;;10.27;64.87;98856.69;4396257;32;34869;-90
2023/04/15 02:18:36;;;;;;;;;;;;;;;10.34;64.64;98856.22;4404381;32;34549;-91
2023/04/15 02:21:17;;;;;;;;;;;;;;;10.11;65.03;98861.94;4395853;32;34114;-90
2023/04/15 02:23:47;;;;;;;;;;;;;;;9.88;66.16;98853.56;4407506;32;34363;-89
2023/04/15 02:26:17;;;;;;;;;;;;;;;10.01;65.78;98858.97;4405022;32;34537;-88
2023/04/15 02:28:46;;;;;;;;;;;;;;;10.03;65.83;98859.75;4405166;32;35399;-88
2023/04/15 02:31:16;;;;;;;;;;;;;;;10.28;65.31;98851.31;4405773;32;33639;-89
2023/04/15 02:33:46;;;;;;;;;;;;;;;9.87;66.46;98857.09;4405061;32;37309;-91
2023/04/15 02:36:28;;;;;;;;;;;;;;;9.87;66.59;98865.00;4411351;32;34464;-90
2023/04/15 02:39:20;;;;;;;;;;;;;;;9.96;66.43;98864.50;4426834;32;34709;-91
2023/04/15 02:41:51;;;;;;;;;;;;;;;9.87;66.61;98872.91;4430046;32;33866;-90
2023/04/15 02:44:23;;;;;;;;;;;;;;;9.98;66.70;98867.91;4432244;32;34648;-91
2023/04/15 02:46:58;;;;;;;;;;;;;;;10.08;66.33;98857.69;4431430;32;34674;-91
2023/04/15 02:49:47;;;;;;;;;;;;;;;10.06;66.43;98866.63;4420733;32;34706;-90
2023/04/15 02:52:36;;;;;;;;;;;;;;;10.52;64.67;98864.87;4428577;32;33902;-90
2023/04/15 02:55:09;;;;;;;;;;;;;;;10.07;65.79;98863.91;4413849;32;33809;-90
2023/04/15 02:57:43;;;;;;;;;;;;;;;10.23;65.53;98858.63;4427102;32;34855;-90
2023/04/15 03:00:24;;;;;;;;;;;;;;;10.08;65.58;98854.22;4421413;32;34703;-90
2023/04/15 03:02:57;;;;;;;;;;;;;;;9.92;66.68;98855.09;4431653;32;33958;-88
2023/04/15 03:05:27;;;;;;;;;;;;;;;9.77;67.10;98847.16;4422953;32;34649;-89
2023/04/15 03:07:57;;;;;;;;;;;;;;;9.96;66.18;98851.31;4427534;32;34226;-90
2023/04/15 03:10:37;;;;;;;;;;;;;;;9.77;67.03;98850.66;4425955;32;34993;-88
2023/04/15 03:13:07;;;;;;;;;;;;;;;9.95;65.85;98854.91;4430215;32;35765;-89
2023/04/15 03:15:36;;;;;;;;;;;;;;;9.86;67.03;98844.88;4426117;32;35269;-89
2023/04/15 03:18:05;;;;;;;;;;;;;;;9.95;66.46;98854.91;4424174;32;35528;-90
2023/04/15 03:20:36;;;;;;;;;;;;;;;9.91;66.56;98858.63;4423292;32;34718;-90
2023/04/15 03:23:17;;;;;;;;;;;;;;;9.78;67.25;98851.50;4412076;32;33319;-90
2023/04/15 03:25:46;;;;;;;;;;;;;;;10.44;64.77;98859.19;4419861;32;34643;-89
2023/04/15 03:28:15;;;;;;;;;;;;;;;10.27;65.36;98849.63;4426444;32;34752;-88
2023/04/15 03:30:45;;;;;;;;;;;;;;;10.03;65.94;98851.84;4413233;32;34729;-89
2023/04/15 03:33:14;;;;;;;;;;;;;;;9.92;66.63;98855.09;4423379;32;34576;-88
2023/04/15 03:35:43;;;;;;;;;;;;;;;9.98;66.62;98849.47;4422626;32;35419;-89
2023/04/15 03:38:12;;;;;;;;;;;;;;;9.88;67.11;98853.56;4424248;32;34389;-89
2023/04/15 03:40:43;;;;;;;;;;;;;;;10.08;66.64;98846.31;4425874;32;35563;-89
2023/04/15 03:43:13;;;;;;;;;;;;;;;10.10;66.21;98847.91;4426077;32;33941;-89
2023/04/15 03:45:41;;;;;;;;;;;;;;;10.38;65.21;98846.34;4427360;32;36790;-88
2023/04/15 03:48:11;;;;;;;;;;;;;;;10.28;65.35;98840.75;4427091;32;34663;-88
2023/04/15 03:50:49;;;;;;;;;;;;;;;10.14;66.05;98849.44;4425207;32;34300;-89
2023/04/15 03:53:21;;;;;;;;;;;;;;;10.25;65.70;98843.56;4427166;32;33852;-89
2023/04/15 03:55:51;;;;;;;;;;;;;;;10.11;65.86;98848.75;4426650;32;34645;-89
2023/04/15 03:58:21;;;;;;;;;;;;;;;10.20;65.95;98837.66;4426057;32;34500;-88
2023/04/15 04:00:53;;;;;;;;;;;;;;;10.12;65.79;98840.78;4425325;32;34576;-89
2023/04/15 04:03:24;;;;;;;;;;;;;;;10.18;66.28;98840.41;4422988;32;34016;-89
2023/04/15 04:05:53;;;;;;;;;;;;;;;10.16;65.82;98844.94;4427682;32;34507;-88
2023/04/15 04:08:22;;;;;;;;;;;;;;;10.04;65.86;98847.41;4422283;32;35644;-89
2023/04/15 04:10:51;;;;;;;;;;;;;;;10.15;66.18;98847.63;4407872;32;34791;-89
2023/04/15 04:13:20;;;;;;;;;;;;;;;10.13;66.00;98846.88;4414994;32;33910;-90
2023/04/15 04:15:50;;;;;;;;;;;;;;;10.19;66.06;98846.53;4426764;32;34687;-89
2023/04/15 04:18:21;;;;;;;;;;;;;;;10.09;65.81;98840.09;4432265;32;34427;-91
2023/04/15 04:21:15;;;;;;;;;;;;;;;10.13;66.28;98834.53;4426733;32;34604;-92
2023/04/15 04:23:56;;;;;;;;;;;;;;;9.79;67.45;98851.44;4414732;32;33641;-91
2023/04/15 04:26:41;;;;;;;;;;;;;;;9.94;67.01;98852.34;4395369;32;34192;-90
2023/04/15 04:29:32;;;;;;;;;;;;;;;10.04;66.91;98850.91;4406439;32;34527;-90
2023/04/15 04:32:14;;;;;;;;;;;;;;;9.98;67.44;98857.37;4395344;32;34512;-91
2023/04/15 04:35:10;;;;;;;;;;;;;;;10.17;67.14;98854.53;4389131;32;34642;-90
2023/04/15 04:37:53;;;;;;;;;;;;;;;10.50;65.60;98854.41;4386415;32;34535;-90
2023/04/15 04:40:48;;;;;;;;;;;;;;;10.32;66.55;98858.13;4392952;32;34653;-89
2023/04/15 04:43:37;;;;;;;;;;;;;;;10.57;65.78;98856.69;4404660;32;35519;-89
2023/04/15 04:46:10;;;;;;;;;;;;;;;10.64;65.36;98852.75;4406451;32;33497;-89
2023/04/15 04:49:04;;;;;;;;;;;;;;;10.58;65.93;98861.03;4403834;32;34586;-89
2023/04/15 04:51:54;;;;;;;;;;;;;;;10.43;66.10;98853.06;4428419;32;34818;-89
2023/04/15 04:54:37;;;;;;;;;;;;;;;10.59;65.76;98852.19;4419116;32;34758;-92
2023/04/15 05:01:21;;;;;;;;;;;;;;;10.49;66.56;98855.38;4395715;32;34995;-91
2023/04/15 05:04:15;;;;;;;;;;;;;;;10.42;66.76;98853.16;4402132;32;34411;-90
2023/04/15 05:06:58;;;;;;;;;;;;;;;10.56;66.92;98855.00;4385016;32;35211;-91
2023/04/15 05:14:01;;;;;;;;;;;;;;;10.70;66.75;98855.03;4441124;32;35108;-90
2023/04/15 05:16:56;;;;;;;;;;;;;;;10.70;66.82;98861.16;4418645;32;35354;-88
2023/04/15 05:19:25;;;;;;;;;;;;;;;10.43;67.87;98858.34;4407939;32;34301;-89
2023/04/15 05:21:54;;;;;;;;;;;;;;;10.67;66.87;98858.69;4407217;32;34234;-89
2023/04/15 05:24:31;;;;;;;;;;;;;;;10.60;67.15;98857.37;4408893;32;35377;-88
2023/04/15 05:27:04;;;;;;;;;;;;;;;10.74;66.83;98859.19;4407294;32;34812;-89
2023/04/15 05:29:34;;;;;;;;;;;;;;;10.60;67.41;98861.78;4409106;32;33166;-89
2023/04/15 05:32:04;;;;;;;;;;;;;;;10.55;66.87;98862.06;4407939;32;34335;-87
2023/04/15 05:34:33;;;;;;;;;;;;;;;10.22;68.52;98868.31;4409384;32;34978;-89
2023/04/15 05:37:03;;;;;;;;;;;;;;;10.50;67.47;98861.50;4406378;32;33724;-89
2023/04/15 05:39:34;;;;;;;;;;;;;;;10.18;68.37;98873.84;4408363;32;35388;-89
2023/04/15 05:42:04;;;;;;;;;;;;;;;10.20;68.51;98874.59;4408305;32;34010;-89
2023/04/15 05:44:35;;;;;;;;;;;;;;;10.22;69.04;98881.50;4407840;32;34607;-89
2023/04/15 05:47:04;;;;;;;;;;;;;;;10.32;68.68;98871.31;4407909;32;34146;-89
2023/04/15 05:49:38;;;;;;;;;;;;;;;10.45;68.63;98874.94;4408550;32;34905;-89
2023/04/15 05:52:12;;;;;;;;;;;;;;;10.61;67.95;98880.19;4409201;32;34174;-89
2023/04/15 05:54:43;;;;;;;;;;;;;;;10.53;68.92;98879.75;4406896;32;34734;-90
2023/04/15 05:57:17;;;;;;;;;;;;;;;10.64;68.42;98885.28;4407846;32;34818;-89
2023/04/15 06:02:36;;;;;;;;;;;;;;;10.84;67.86;98886.75;4415791;32;33994;-90
2023/04/15 06:05:09;;;;;;;;;;;;;;;11.10;67.43;98881.69;4407988;32;34852;-89
2023/04/15 06:07:39;;;;;;;;;;;;;;;11.01;67.73;98894.53;4391262;32;35595;-89
2023/04/15 06:10:13;;;;;;;;;;;;;;;10.99;68.37;98895.56;4405313;32;34287;-89
2023/04/15 06:12:42;;;;;;;;;;;;;;;11.01;69.41;98898.94;4408407;32;33115;-89
2023/04/15 06:15:11;;;;;;;;;;;;;;;11.01;68.77;98897.16;4411482;32;35364;-88
2023/04/15 06:17:47;;;;;;;;;;;;;;;10.99;67.77;98904.31;4420689;32;33705;-89
2023/04/15 06:20:18;;;;;;;;;;;;;;;10.98;68.30;98893.84;4423114;32;34856;-89
2023/04/15 06:22:48;;;;;;;;;;;;;;;11.42;66.68;98893.78;4422428;32;32776;-89
2023/04/15 06:25:24;;;;;;;;;;;;;;;11.28;67.14;98897.28;4421572;32;34593;-89
2023/04/15 06:27:55;;;;;;;;;;;;;;;11.65;65.99;98889.72;4426938;32;33986;-87
2023/04/15 06:30:34;;;;;;;;;;;;;;;11.97;64.68;98893.03;4396498;32;34512;-87
2023/04/15 06:33:05;;;;;;;;;;;;;;;12.10;64.55;98890.41;4423097;32;33838;-89
2023/04/15 06:35:36;;;;;;;;;;;;;;;11.94;64.53;98898.50;4409753;32;35588;-90
2023/04/15 06:38:17;;;;;;;;;;;;;;;11.95;64.55;98892.25;4423353;32;34716;-88
2023/04/15 06:40:55;;;;;;;;;;;;;;;11.93;65.18;98891.50;4422808;32;36539;-88
2023/04/15 06:43:30;;;;;;;;;;;;;;;12.42;64.24;98895.44;4424830;32;33799;-91
2023/04/15 06:46:12;;;;;;;;;;;;;;;12.29;63.48;98903.31;4402341;32;34394;-92
2023/04/15 06:49:23;;;;;;;;;;;;;;;12.39;63.21;98892.97;4397443;32;33272;-91
2023/04/15 06:52:10;;;;;;;;;;;;;;;12.32;61.64;98895.19;4380568;32;35230;-92
2023/04/15 06:55:26;;;;;;;;;;;;;;;11.88;62.20;98901.53;4398052;32;34033;-90
2023/04/15 06:58:10;;;;;;;;;;;;;;;12.11;62.39;98894.78;4410160;32;34401;-91
2023/04/15 07:01:01;;;;;;;;;;;;;;;12.17;61.76;98896.19;4429869;32;34404;-91
2023/04/15 07:03:45;;;;;;;;;;;;;;;12.57;61.27;98894.41;4439500;32;34394;-91
2023/04/15 07:06:26;;;;;;;;;;;;;;;12.82;61.16;98901.59;4429558;32;34553;-92
2023/04/15 07:09:10;;;;;;;;;;;;;;;12.72;60.05;98903.13;4410373;32;34477;-94
2023/04/15 07:11:55;;;;;;;;;;;;;;;12.57;61.62;98908.50;4409402;32;34280;-88
2023/04/15 07:14:27;;;;;;;;;;;;;;;12.65;58.92;98900.06;4406812;32;34713;-91
2023/04/15 07:17:08;;;;;;;;;;;;;;;12.75;58.40;98908.25;4422962;32;34506;-91
2023/04/15 07:19:57;;;;;;;;;;;;;;;12.66;58.60;98914.16;4435766;32;35130;-92
2023/04/15 07:23:01;;;;;;;;;;;;;;;12.42;58.91;98914.81;4373691;32;34841;-87
2023/04/15 07:28:23;;;;;;;;;;;;;;;12.84;58.68;98912.91;4433735;32;33749;-90
2023/04/15 07:31:10;;;;;;;;;;;;;;;12.46;57.75;98915.47;4399954;32;34458;-90
2023/04/15 07:34:04;;;;;;;;;;;;;;;12.35;58.32;98915.31;4401029;32;33336;-90
2023/04/15 07:36:39;;;;;;;;;;;;;;;12.32;59.93;98916.34;4407482;32;34932;-90
2023/04/15 07:39:38;;;;;;;;;;;;;;;11.98;59.05;98922.97;4414493;32;34189;-89
2023/04/15 07:42:22;;;;;;;;;;;;;;;11.95;60.20;98918.72;4360731;32;34046;-90
2023/04/15 07:45:26;;;;;;;;;;;;;;;12.18;60.82;98919.03;4359731;32;33683;-89
2023/04/15 07:48:11;;;;;;;;;;;;;;;12.15;59.97;98921.88;4420274;32;34452;-90
2023/04/15 07:50:56;;;;;;;;;;;;;;;12.55;58.59;98923.66;4394499;32;33634;-90
2023/04/15 07:53:43;;;;;;;;;;;;;;;12.73;58.06;98916.28;4402969;32;34706;-85
2023/04/15 07:56:13;;;;;;;;;;;;;;;11.86;59.59;98921.94;4413768;32;34198;-90
2023/04/15 08:02:02;;;;;;;;;;;;;;;11.99;59.42;98920.22;4399799;32;34496;-89
2023/04/15 08:04:57;;;;;;;;;;;;;;;12.12;59.12;98924.75;4407387;32;34786;-88
2023/04/15 08:07:57;;;;;;;;;;;;;;;12.57;58.34;98921.72;4398628;32;34806;-91
2023/04/15 08:10:29;;;;;;;;;;;;;;;12.24;59.00;98927.44;4414474;32;34190;-88
2023/04/15 08:13:25;;;;;;;;;;;;;;;12.10;59.85;98931.91;4414350;32;35003;-88
2023/04/15 08:16:13;;;;;;;;;;;;;;;12.71;58.73;98926.13;4411398;32;34433;-88
2023/04/15 08:18:46;;;;;;;;;;;;;;;12.62;59.62;98936.47;4409554;32;34678;-88
2023/04/15 08:21:22;;;;;;;;;;;;;;;12.70;59.84;98939.47;4403365;32;34778;-87
2023/04/15 08:23:53;;;;;;;;;;;;;;;12.94;58.59;98939.66;4433439;32;33789;-87
2023/04/15 08:26:26;;;;;;;;;;;;;;;12.86;58.86;98931.34;4428162;32;34430;-89
2023/04/15 08:29:04;;;;;;;;;;;;;;;13.13;57.70;98934.81;4420520;32;34669;-88
2023/04/15 08:31:34;;;;;;;;;;;;;;;13.42;57.24;98940.78;4421131;32;35739;-88
2023/04/15 08:34:13;;;;;;;;;;;;;;;13.29;56.60;98940.81;4413367;32;34083;-89
2023/04/15 08:36:50;;;;;;;;;;;;;;;13.36;57.63;98946.53;4425773;32;34546;-89
2023/04/15 08:39:20;;;;;;;;;;;;;;;13.87;55.85;98938.53;4418970;32;34501;-89
2023/04/15 08:42:06;;;;;;;;;;;;;;;13.64;56.44;98948.13;4414485;32;34448;-90
2023/04/15 08:44:37;;;;;;;;;;;;;;;13.49;56.26;98944.72;4414877;32;35207;-90
2023/04/15 08:47:08;;;;;;;;;;;;;;;13.20;56.23;98952.00;4413597;32;34706;-89
2023/04/15 08:49:41;;;;;;;;;;;;;;;13.11;56.11;98951.78;4412097;32;34859;-90
2023/04/15 08:52:19;;;;;;;;;;;;;;;13.14;56.25;98948.91;4410779;32;35749;-89
2023/04/15 08:54:52;;;;;;;;;;;;;;;13.13;56.51;98944.56;4415200;32;34855;-90
2023/04/15 08:57:27;;;;;;;;;;;;;;;13.49;55.79;98944.72;4422264;32;34709;-90
2023/04/15 09:00:02;;;;;;;;;;;;;;;13.83;53.88;98945.88;4431240;32;35247;-91
2023/04/15 09:03:09;;;;;;;;;;;;;;;13.81;53.09;98947.78;4408501;32;34653;-88
2023/04/15 09:05:55;;;;;;;;;;;;;;;13.68;54.39;98948.75;4401901;32;33902;-89
2023/04/15 09:08:56;;;;;;;;;;;;;;;13.71;53.96;98946.72;4386300;32;35348;-89
2023/04/15 09:11:29;;;;;;;;;;;;;;;13.76;54.49;98943.75;4381380;32;34786;-90
2023/04/15 09:14:20;;;;;;;;;;;;;;;14.06;54.03;98946.88;4383941;32;34008;-90
2023/04/15 09:17:06;;;;;;;;;;;;;;;14.08;54.56;98947.63;4401103;32;33639;-90
2023/04/15 09:20:06;;;;;;;;;;;;;;;14.06;55.63;98951.34;4411077;32;33704;-90
2023/04/15 09:22:52;;;;;;;;;;;;;;;13.68;54.71;98959.38;4404064;32;34561;-90
2023/04/15 09:25:32;;;;;;;;;;;;;;;13.76;53.64;98957.00;4386868;32;34879;-90
2023/04/15 09:28:03;;;;;;;;;;;;;;;13.34;53.73;98961.69;4397971;32;35713;-90
2023/04/15 09:30:46;;;;;;;;;;;;;;;13.53;54.77;98954.19;4388218;32;34967;-90
2023/04/15 09:33:22;;;;;;;;;;;;;;;13.98;54.36;98953.69;4404931;32;34759;-90
2023/04/15 09:39:02;;;;;;;;;;;;;;;13.44;54.99;98954.81;4399205;32;34150;-90
2023/04/15 09:41:33;;;;;;;;;;;;;;;13.92;54.79;98956.78;4406910;32;34759;-91
2023/04/15 09:44:26;;;;;;;;;;;;;;;13.58;54.65;98959.16;4384734;32;34310;-91
2023/04/15 09:49:59;;;;;;;;;;;;;;;12.84;57.47;98971.22;4442816;32;20392;-88
2023/04/15 09:52:30;;;;;;;;;;;;;;;12.80;58.83;98978.50;4434842;32;35240;-87
2023/04/15 09:55:00;;;;;;;;;;;;;;;13.08;59.49;98980.16;4431504;32;34894;-86
2023/04/15 09:57:38;;;;;;;;;;;;;;;13.03;58.89;98976.97;4430746;32;34349;-86
2023/04/15 10:00:18;;;;;;;;;;;;;;;13.21;59.76;98984.66;4434443;32;33726;-86
2023/04/15 10:02:54;;;;;;;;;;;;;;;13.23;59.24;98988.06;4432827;32;32619;-86
2023/04/15 10:08:07;;;;;;;;;;;;;;;13.34;58.33;98990.88;4431748;32;35092;-85
2023/04/15 10:10:44;;;;;;;;;;;;;;;13.39;56.85;98978.16;4433059;32;32794;-86
2023/04/15 10:13:16;;;;;;;;;;;;;;;13.48;56.68;98985.47;4443877;32;32843;-86
2023/04/15 10:15:50;;;;;;;;;;;;;;;13.34;56.32;98990.88;4419210;32;34772;-86
2023/04/15 10:18:22;;;;;;;;;;;;;;;12.84;58.36;98988.91;4430249;32;35665;-86
2023/04/15 10:20:53;;;;;;;;;;;;;;;13.06;57.13;98981.25;4417498;32;33710;-84
2023/04/15 10:23:24;;;;;;;;;;;;;;;12.71;58.62;98989.69;4431355;32;35453;-84
2023/04/15 10:25:55;;;;;;;;;;;;;;;12.44;59.96;99000.28;4427374;32;34269;-85
2023/04/15 10:28:37;;;;;;;;;;;;;;;12.56;61.32;98996.00;4429205;32;34635;-85
2023/04/15 10:31:15;;;;;;;;;;;;;;;12.73;62.38;99002.84;4431745;32;35725;-85
2023/04/15 10:33:47;;;;;;;;;;;;;;;12.69;60.88;98998.72;4431515;32;34458;-85
2023/04/15 10:36:19;;;;;;;;;;;;;;;12.19;61.94;99000.13;4428374;32;35666;-85
2023/04/15 10:38:52;;;;;;;;;;;;;;;12.51;62.08;99001.59;4427236;32;35505;-85
2023/04/15 10:41:32;;;;;;;;;;;;;;;12.40;60.38;99006.72;4418351;32;34056;-85
2023/04/15 10:44:03;;;;;;;;;;;;;;;12.35;61.60;99005.34;4440227;32;35444;-85
2023/04/15 10:46:39;;;;;;;;;;;;;;;13.03;59.49;98998.19;4429748;32;35380;-85
2023/04/15 10:49:13;;;;;;;;;;;;;;;13.15;58.92;99001.81;4418896;32;34268;-85
2023/04/15 10:51:46;;;;;;;;;;;;;;;12.74;59.71;99007.19;4431741;32;33893;-85
2023/04/15 10:54:25;;;;;;;;;;;;;;;12.38;60.33;99011.25;4428817;32;35330;-85
2023/04/15 10:57:00;;;;;;;;;;;;;;;13.03;59.85;99000.81;4429777;32;34063;-85
2023/04/15 10:59:42;;;;;;;;;;;;;;;12.63;61.56;99015.84;4432750;32;33963;-85
2023/04/15 11:02:14;;;;;;;;;;;;;;;12.58;62.40;99017.94;4444637;32;33524;-86
2023/04/15 11:04:59;;;;;;;;;;;;;;;12.66;62.69;99014.78;4429366;32;34439;-85
2023/04/15 11:07:32;;;;;;;;;;;;;;;12.66;62.72;99025.37;4430501;32;34120;-85
2023/04/15 11:10:04;;;;;;;;;;;;;;;12.26;63.01;99017.34;4444999;32;35580;-86
2023/04/15 11:12:35;;;;;;;;;;;;;;;12.96;61.96;99007.50;4427273;32;34467;-86
2023/04/15 11:15:25;;;;;;;;;;;;;;;13.04;61.14;99013.13;4433775;32;34153;-86
2023/04/15 11:17:58;;;;;;;;;;;;;;;12.09;61.98;99017.53;4439943;32;35552;-85
2023/04/15 11:20:31;;;;;;;;;;;;;;;12.43;62.73;99009.16;4430558;32;35379;-85
2023/04/15 11:23:05;;;;;;;;;;;;;;;12.35;62.89;99011.47;4433724;32;33860;-86
2023/04/15 11:25:40;;;;;;;;;;;;;;;12.54;62.71;99006.69;4423759;32;34810;-86
2023/04/15 11:28:11;;;;;;;;;;;;;;;12.32;62.22;99009.00;4433123;32;34707;-87
2023/04/15 11:30:44;;;;;;;;;;;;;;;12.77;61.22;99004.34;4430739;32;34781;-86
2023/04/15 11:33:15;;;;;;;;;;;;;;;12.73;60.91;99006.34;4442992;32;33809;-87
2023/04/15 11:35:47;;;;;;;;;;;;;;;12.77;62.18;99004.34;4418871;32;35091;-86
2023/04/15 11:38:18;;;;;;;;;;;;;;;12.36;62.75;99013.16;4416901;32;35249;-87
2023/04/15 11:41:01;;;;;;;;;;;;;;;12.73;60.52;99005.50;4433193;32;34795;-86
2023/04/15 11:43:34;;;;;;;;;;;;;;;12.39;62.05;99012.97;4446141;32;34518;-86
2023/04/15 11:46:11;;;;;;;;;;;;;;;12.76;61.44;99007.94;4434976;32;35127;-87
2023/04/15 11:48:43;;;;;;;;;;;;;;;12.83;60.28;99011.91;4433653;32;35037;-87
2023/04/15 11:51:23;;;;;;;;;;;;;;;13.11;60.16;99010.09;4434611;32;34740;-86
2023/04/15 11:53:58;;;;;;;;;;;;;;;13.40;58.64;99011.66;4433159;32;33913;-86
2023/04/15 11:56:32;;;;;;;;;;;;;;;13.60;58.54;99007.63;4429093;32;34097;-87
2023/04/15 11:59:05;;;;;;;;;;;;;;;13.40;57.06;99011.66;4435455;32;34801;-86
2023/04/15 12:01:41;;;;;;;;;;;;;;;13.37;57.68;99014.50;4420511;32;32720;-87
2023/04/15 12:04:12;;;;;;;;;;;;;;;13.68;56.24;99012.44;4444091;32;34120;-91
2023/04/15 12:06:46;;;;;;;;;;;;;;;13.44;57.29;99015.81;4419264;32;32534;-86
2023/04/15 12:09:20;;;;;;;;;;;;;;;13.14;58.41;99015.16;4428001;32;33864;-86
2023/04/15 12:12:04;;;;;;;;;;;;;;;13.02;59.11;99020.34;4426269;32;34652;-86
2023/04/15 12:14:37;;;;;;;;;;;;;;;13.25;58.34;99025.94;4446092;32;33506;-86
2023/04/15 12:17:07;;;;;;;;;;;;;;;13.14;59.35;99020.47;4437565;32;34920;-86
2023/04/15 12:19:36;;;;;;;;;;;;;;;13.35;59.93;99013.78;4430727;32;34008;-86
2023/04/15 12:22:16;;;;;;;;;;;;;;;12.93;59.38;99023.59;4408589;32;33326;-86
2023/04/15 12:24:56;;;;;;;;;;;;;;;13.26;57.87;99015.22;4445279;32;34017;-86
2023/04/15 12:27:36;;;;;;;;;;;;;;;13.04;57.69;99031.66;4438563;32;34901;-87
2023/04/15 12:30:16;;;;;;;;;;;;;;;13.25;57.45;99018.00;4427696;32;33826;-85
2023/04/15 12:32:48;;;;;;;;;;;;;;;13.24;58.34;99026.88;4439607;32;34428;-87
2023/04/15 12:35:18;;;;;;;;;;;;;;;13.36;57.13;99027.88;4417325;32;32100;-87
2023/04/15 12:37:48;;;;;;;;;;;;;;;13.14;57.92;99023.13;4421419;32;33101;-86
2023/04/15 12:40:23;;;;;;;;;;;;;;;13.08;57.21;99027.03;4406432;32;32992;-86
2023/04/15 12:42:58;;;;;;;;;;;;;;;13.27;57.69;99024.03;4430578;32;34842;-87
2023/04/15 12:45:27;;;;;;;;;;;;;;;13.53;57.34;99024.91;4431901;32;32161;-85
2023/04/15 12:48:08;;;;;;;;;;;;;;;13.38;58.39;99024.16;4434924;32;35810;-86
2023/04/15 12:50:37;;;;;;;;;;;;;;;13.41;57.06;99026.59;4425837;32;34115;-86
2023/04/15 12:53:15;;;;;;;;;;;;;;;13.74;55.94;99025.25;4426240;32;35101;-85
2023/04/15 12:55:48;;;;;;;;;;;;;;;13.54;56.82;99026.63;4424778;32;32499;-86
2023/04/15 13:00:58;;;;;;;;;;;;;;;13.76;56.17;99028.62;4407311;32;32807;-86
2023/04/15 13:03:27;;;;;;;;;;;;;;;14.04;55.70;99033.72;4405220;32;32618;-87
2023/04/15 13:05:57;;;;;;;;;;;;;;;13.34;57.55;99033.28;4430671;32;32350;-87
2023/04/15 13:08:32;;;;;;;;;;;;;;;13.61;57.13;99025.25;4433853;32;32674;-87
2023/04/15 13:11:09;;;;;;;;;;;;;;;14.08;55.87;99029.06;4427916;32;33693;-87
2023/04/15 13:13:40;;;;;;;;;;;;;;;14.17;55.40;99022.25;4417024;32;33415;-87
2023/04/15 13:16:16;;;;;;;;;;;;;;;13.75;55.69;99033.09;4425256;32;33170;-87
2023/04/15 13:18:45;;;;;;;;;;;;;;;13.94;56.00;99042.44;4406352;32;32761;-87
2023/04/15 13:21:13;;;;;;;;;;;;;;;13.68;55.96;99041.59;4418916;32;34006;-86
2023/04/15 13:23:42;;;;;;;;;;;;;;;13.41;55.94;99039.88;4429662;32;34228;-86
2023/04/15 13:26:17;;;;;;;;;;;;;;;13.44;57.31;99041.47;4419905;32;33155;-86
2023/04/15 13:28:52;;;;;;;;;;;;;;;13.71;56.57;99036.06;4421699;32;33019;-86
2023/04/15 13:31:20;;;;;;;;;;;;;;;13.74;56.10;99049.13;4415745;32;34432;-86
2023/04/15 13:33:50;;;;;;;;;;;;;;;13.47;56.79;99036.78;4424883;32;33514;-86
2023/04/15 13:36:23;;;;;;;;;;;;;;;14.07;56.06;99038.84;4416201;32;33121;-85
2023/04/15 13:38:51;;;;;;;;;;;;;;;13.93;56.97;99041.59;4420948;32;33206;-87
2023/04/15 13:44:07;;;;;;;;;;;;;;;13.81;57.38;99053.06;4433215;32;33146;-86
2023/04/15 13:46:41;;;;;;;;;;;;;;;14.23;54.92;99054.53;4419117;32;32852;-87
2023/04/15 13:49:11;;;;;;;;;;;;;;;14.08;55.24;99051.16;4430583;32;32884;-87
2023/04/15 13:51:41;;;;;;;;;;;;;;;14.31;54.33;99040.72;4433132;32;33529;-87
2023/04/15 13:54:16;;;;;;;;;;;;;;;14.12;53.04;99045.63;4432792;32;32505;-87
2023/04/15 13:56:45;;;;;;;;;;;;;;;14.27;53.94;99049.84;4430593;32;33364;-87
2023/04/15 13:59:25;;;;;;;;;;;;;;;14.33;53.66;99049.41;4432950;32;34541;-87
2023/04/15 14:01:53;;;;;;;;;;;;;;;14.49;53.31;99057.19;4429366;32;34480;-87
2023/04/15 14:04:26;;;;;;;;;;;;;;;14.15;52.72;99067.50;4417668;32;33100;-87
2023/04/15 14:07:03;;;;;;;;;;;;;;;14.47;53.54;99057.25;4421158;32;32565;-87
2023/04/15 14:09:37;;;;;;;;;;;;;;;14.47;53.32;99043.97;4411334;32;33189;-87
2023/04/15 14:12:10;;;;;;;;;;;;;;;14.65;52.77;99056.91;4425784;32;33013;-87
2023/04/15 14:14:48;;;;;;;;;;;;;;;14.67;52.12;99057.66;4423825;32;33824;-87